Meteo Giornale » Osservazioni meteo Italia » Messina

ore: 09:55 - Osservazioni Meteo Messina
Lat. 38° 12' N Lon. 15° 33' E Alt. 59 metri s.l.m.

sereno Europe/Rome

22 °C

Sereno

Temp. 24 Ore

15 °C

22 °C

Nord-Est

16.7 Km/h

Dew point 2 °C

Umidità 26 %

Visibilità  10 Km

Il sole sorge alle ore 05:44

Il sole tramonta alle ore 20:04

Data e Ora Cielo e Fenomeni T °C DP °C Um. % Pres. hPa Vis. km Vento km/h
Oggi h: 09:55 sereno Sereno 22 2 26 1014 10 NE 16.7
Oggi h: 08:55 sereno Sereno 20 4 34 1015 10 N 5.5
Oggi h: 06:55 sereno Sereno 15 4 47 1015 10 N 5.5
Oggi h: 05:55 poco_nuvoloso Poco Nuvoloso 15 4 47 1015 10 N 5.5
Oggi h: 04:55 poco_nuvoloso Poco Nuvoloso 15 5 51 1015 10 N 0
Oggi h: 02:55 nuvoloso Nuvoloso 17 7 51 1015 10 N 0
Oggi h: 01:55 poco_nuvoloso Poco Nuvoloso 17 4 41 1015 10 N/NE 7.4
Oggi h: 00:55 poco_nuvoloso Poco Nuvoloso 17 10 63 1015 10 N/NE 11.1
Ieri h: 23:55 poco_nuvoloso Poco Nuvoloso 17 10 63 1015 10 N/NE 7.4
Ieri h: 22:55 poco_nuvoloso Poco Nuvoloso 18 10 59 1015 10 N/NE 9.3
Ieri h: 20:55 nuvoloso Nuvoloso 18 9 55 1015 10 N/NE 9.3
Ieri h: 19:55 nuvoloso Nuvoloso 18 10 59 1015 10 N 5.5
Ieri h: 18:55 nuvoloso Nuvoloso 18 10 59 1015 10 NO 9.3
Ieri h: 17:55 nuvoloso Nuvoloso 19 10 55 1015 10 O/NO 14.8
Ieri h: 16:55 nuvoloso Nuvoloso 19 10 55 1015 10 O/NO 16.7
Ieri h: 15:55 nuvoloso Nuvoloso 20 10 52 1014 10 O/NO 18.5
Ieri h: 13:55 nuvoloso Nuvoloso 20 10 52 1014 10 O/NO 20.3
Ieri h: 12:55 nuvoloso Nuvoloso 20 9 49 1014 10 O/NO 18.5
Ieri h: 11:55 nuvoloso Nuvoloso 19 9 52 1014 10 O/NO 27.8
Ieri h: 10:55 nuvoloso Nuvoloso 19 8 48 1014 10 O/NO 14.8